createdAt,value
2019-03-12T00:01:07.475Z,22.00
2019-03-12T00:03:09.100Z,21.98
2019-03-12T00:05:10.730Z,21.96
2019-03-12T00:07:12.374Z,21.99
2019-03-12T00:09:13.984Z,21.98
2019-03-12T00:11:15.616Z,21.99
2019-03-12T00:13:17.223Z,21.98
2019-03-12T00:15:18.831Z,22.01
2019-03-12T00:17:20.446Z,22.05
2019-03-12T00:19:22.043Z,22.07
2019-03-12T00:21:23.657Z,22.10
2019-03-12T00:23:25.268Z,22.14
2019-03-12T00:25:26.861Z,22.14
2019-03-12T00:27:28.459Z,22.12
2019-03-12T00:29:30.058Z,22.11
2019-03-12T00:31:31.660Z,22.09
2019-03-12T00:33:33.287Z,22.07
2019-03-12T00:35:34.892Z,22.07
2019-03-12T00:37:36.500Z,22.05
2019-03-12T00:39:38.116Z,22.07
2019-03-12T00:41:39.700Z,22.08
2019-03-12T00:43:41.302Z,22.12
2019-03-12T00:45:42.891Z,22.14
2019-03-12T00:47:44.486Z,22.15
2019-03-12T00:49:46.112Z,22.17
2019-03-12T00:51:47.709Z,22.14
2019-03-12T00:53:49.306Z,22.14
2019-03-12T00:55:50.901Z,22.12
2019-03-12T00:57:52.479Z,22.11
2019-03-12T00:59:56.328Z,22.09
2019-03-12T01:01:55.768Z,22.08
2019-03-12T01:03:57.367Z,22.07
2019-03-12T01:05:58.974Z,22.09
2019-03-12T01:08:00.566Z,22.04
2019-03-12T01:10:02.175Z,22.06
2019-03-12T01:12:03.775Z,22.03
2019-03-12T01:14:05.382Z,21.97
2019-03-12T01:16:07.044Z,21.78
2019-03-12T01:18:08.656Z,21.84
2019-03-12T01:20:10.260Z,21.76
2019-03-12T01:22:11.890Z,21.72
2019-03-12T01:24:13.489Z,21.68
2019-03-12T01:26:15.119Z,21.70
2019-03-12T01:28:16.715Z,21.67
2019-03-12T01:30:18.323Z,21.65
2019-03-12T01:32:19.957Z,21.66
2019-03-12T01:34:21.550Z,21.65
2019-03-12T01:36:23.183Z,21.69
2019-03-12T01:38:24.800Z,21.78
2019-03-12T01:40:26.426Z,21.64
2019-03-12T01:42:28.044Z,21.90
2019-03-12T01:44:29.670Z,21.92
2019-03-12T01:46:31.274Z,21.96
2019-03-12T01:48:32.882Z,22.04
2019-03-12T01:50:34.487Z,22.02
2019-03-12T01:52:36.085Z,22.05
2019-03-12T01:54:37.710Z,22.06
2019-03-12T01:56:39.297Z,22.10
2019-03-12T01:58:40.938Z,22.11
2019-03-12T02:00:42.539Z,22.11
2019-03-12T02:02:44.138Z,22.17
2019-03-12T02:04:45.783Z,22.16
2019-03-12T02:06:47.419Z,22.18
2019-03-12T02:08:49.004Z,22.16
2019-03-12T02:10:50.612Z,22.18
2019-03-12T02:12:52.221Z,22.18
2019-03-12T02:14:53.828Z,22.19
2019-03-12T02:16:55.453Z,22.22
2019-03-12T02:18:57.063Z,22.21
2019-03-12T02:20:58.671Z,22.20
2019-03-12T02:23:00.272Z,22.19
2019-03-12T02:25:01.882Z,22.20
2019-03-12T02:27:03.503Z,22.21
2019-03-12T02:29:05.148Z,22.17
2019-03-12T02:31:06.759Z,22.15
2019-03-12T02:33:08.363Z,22.10
2019-03-12T02:35:09.995Z,22.10
2019-03-12T02:37:11.612Z,22.08
2019-03-12T02:39:13.345Z,22.05
2019-03-12T02:41:14.953Z,22.03
2019-03-12T02:43:16.565Z,22.06
2019-03-12T02:45:18.174Z,22.07
2019-03-12T02:47:19.771Z,22.10
2019-03-12T02:49:21.406Z,22.11
2019-03-12T02:51:23.017Z,22.08
2019-03-12T02:53:24.670Z,22.09
2019-03-12T02:55:26.898Z,22.09
2019-03-12T02:57:28.510Z,22.08
2019-03-12T02:59:30.133Z,22.09
2019-03-12T03:01:31.723Z,22.09
2019-03-12T03:03:33.320Z,22.10
2019-03-12T03:05:34.937Z,22.16
2019-03-12T03:07:42.248Z,22.17
2019-03-12T03:09:43.791Z,22.17
2019-03-12T03:11:45.404Z,22.17
2019-03-12T03:13:47.005Z,22.17
2019-03-12T03:15:48.594Z,22.16
2019-03-12T03:17:50.199Z,22.16
2019-03-12T03:19:51.815Z,22.16
2019-03-12T03:21:53.425Z,22.17
2019-03-12T03:23:55.039Z,22.17
2019-03-12T03:25:56.669Z,22.19
2019-03-12T03:27:58.268Z,22.21
2019-03-12T03:29:59.856Z,22.19
2019-03-12T03:32:01.535Z,22.19
2019-03-12T03:34:03.131Z,22.16
2019-03-12T03:36:04.781Z,22.16
2019-03-12T03:38:06.391Z,22.17
2019-03-12T03:40:08.007Z,22.15
2019-03-12T03:42:09.643Z,22.18
2019-03-12T03:44:11.248Z,22.24
2019-03-12T03:46:12.899Z,22.22
2019-03-12T03:48:14.539Z,22.19
2019-03-12T03:50:16.153Z,22.27
2019-03-12T03:52:17.815Z,22.28
2019-03-12T03:54:19.463Z,22.28
2019-03-12T03:56:21.083Z,22.26
2019-03-12T03:58:22.681Z,22.27
2019-03-12T04:00:24.280Z,22.26
2019-03-12T04:02:25.905Z,22.26
2019-03-12T04:04:27.488Z,22.25
2019-03-12T04:06:33.533Z,22.25
2019-03-12T04:08:30.804Z,22.23
2019-03-12T04:10:32.433Z,22.26
2019-03-12T04:12:34.082Z,22.22
2019-03-12T04:14:35.683Z,22.25
2019-03-12T04:16:37.268Z,22.22
2019-03-12T04:18:38.881Z,22.21
2019-03-12T04:20:40.488Z,22.20
2019-03-12T04:22:42.142Z,22.18
2019-03-12T04:24:43.760Z,22.19
2019-03-12T04:26:45.407Z,22.16
2019-03-12T04:28:47.012Z,22.15
2019-03-12T04:30:48.615Z,22.15
2019-03-12T04:32:50.245Z,22.17
2019-03-12T04:34:51.857Z,22.17
2019-03-12T04:36:53.724Z,22.17
2019-03-12T04:38:55.326Z,22.18
2019-03-12T04:40:56.918Z,22.17
2019-03-12T04:42:58.499Z,22.03
2019-03-12T04:45:00.181Z,22.15
2019-03-12T04:47:01.754Z,22.13
2019-03-12T04:49:03.674Z,22.13
2019-03-12T04:51:05.282Z,22.09
2019-03-12T04:53:06.919Z,22.11
2019-03-12T04:55:08.513Z,22.10
2019-03-12T04:57:10.156Z,22.11
2019-03-12T04:59:11.753Z,22.09
2019-03-12T05:01:13.345Z,22.11
2019-03-12T05:03:14.942Z,22.13
2019-03-12T05:05:16.536Z,22.08
2019-03-12T05:07:18.170Z,22.05
2019-03-12T05:09:19.766Z,21.99
2019-03-12T05:11:21.376Z,21.95
2019-03-12T05:13:22.973Z,21.91
2019-03-12T05:15:24.566Z,21.85
2019-03-12T05:17:26.204Z,21.81
2019-03-12T05:19:27.863Z,21.75
2019-03-12T05:21:29.468Z,21.70
2019-03-12T05:23:31.061Z,21.67
2019-03-12T05:25:32.655Z,21.64
2019-03-12T05:27:34.271Z,21.66
2019-03-12T05:29:35.869Z,21.68
2019-03-12T05:31:37.452Z,21.75
2019-03-12T05:33:39.046Z,21.84
2019-03-12T05:35:40.655Z,21.91
2019-03-12T05:37:42.240Z,21.93
2019-03-12T05:39:43.843Z,22.01
2019-03-12T05:41:45.474Z,22.06
2019-03-12T05:43:47.069Z,22.11
2019-03-12T05:45:48.711Z,22.17
2019-03-12T05:47:50.321Z,22.24
2019-03-12T05:49:51.918Z,22.27
2019-03-12T05:51:53.555Z,22.33
2019-03-12T05:53:55.172Z,22.36
2019-03-12T05:55:56.784Z,22.37
2019-03-12T05:57:58.369Z,22.38
2019-03-12T06:00:00.700Z,22.40
2019-03-12T06:02:02.284Z,22.45
2019-03-12T06:04:03.935Z,22.48
2019-03-12T06:06:05.561Z,22.34
2019-03-12T06:08:07.164Z,22.40
2019-03-12T06:10:08.779Z,22.32
2019-03-12T06:12:10.384Z,22.26
2019-03-12T06:14:12.010Z,22.19
2019-03-12T06:16:13.592Z,22.18
2019-03-12T06:18:15.223Z,22.13
2019-03-12T06:20:16.817Z,22.12
2019-03-12T06:22:18.427Z,22.10
2019-03-12T06:24:20.054Z,22.11
2019-03-12T06:26:21.650Z,22.08
2019-03-12T06:28:23.293Z,21.99
2019-03-12T06:30:26.038Z,21.95
2019-03-12T06:32:26.567Z,21.90
2019-03-12T06:34:28.193Z,21.87
2019-03-12T06:36:30.394Z,21.82
2019-03-12T06:38:46.641Z,21.78
2019-03-12T06:40:54.100Z,21.77
2019-03-12T06:43:08.597Z,21.75
2019-03-12T06:45:14.685Z,21.74
2019-03-12T06:47:33.462Z,21.73
2019-03-12T06:49:53.724Z,21.76
2019-03-12T06:51:56.047Z,21.76
2019-03-12T06:53:57.641Z,21.79
2019-03-12T06:56:00.034Z,21.61
2019-03-12T06:58:07.227Z,21.89
2019-03-12T07:00:09.244Z,21.92
2019-03-12T07:02:10.829Z,21.98
2019-03-12T07:04:13.138Z,22.03
2019-03-12T07:06:18.209Z,22.08
2019-03-12T07:08:22.584Z,22.11
2019-03-12T07:10:29.874Z,22.13
2019-03-12T07:12:33.205Z,22.16
2019-03-12T07:14:55.576Z,22.17
2019-03-12T07:16:57.203Z,22.19
2019-03-12T07:19:01.427Z,22.20
2019-03-12T07:21:03.064Z,22.21
2019-03-12T07:23:20.338Z,22.24
2019-03-12T07:25:21.939Z,22.23
2019-03-12T07:27:26.025Z,22.21
2019-03-12T07:29:44.349Z,22.24
2019-03-12T07:31:47.771Z,22.22
2019-03-12T07:34:01.118Z,22.18
2019-03-12T07:36:18.546Z,22.14
2019-03-12T07:38:22.661Z,22.10
2019-03-12T07:40:30.466Z,22.05
2019-03-12T07:42:34.663Z,22.04
2019-03-12T07:44:36.798Z,21.99
2019-03-12T07:46:42.190Z,21.98
2019-03-12T07:48:44.276Z,21.91
2019-03-12T07:50:48.680Z,21.90
2019-03-12T07:53:10.143Z,21.90
2019-03-12T07:55:14.608Z,21.65
2019-03-12T07:57:19.767Z,21.86
2019-03-12T07:59:27.120Z,21.86
2019-03-12T08:01:32.257Z,21.85
2019-03-12T08:03:39.541Z,21.84
2019-03-12T08:05:56.765Z,21.82
2019-03-12T08:08:00.869Z,21.91
2019-03-12T08:10:09.279Z,22.04
2019-03-12T08:12:10.884Z,22.21
2019-03-12T08:14:13.139Z,22.33
2019-03-12T08:16:15.338Z,22.42
2019-03-12T08:18:35.587Z,22.48
2019-03-12T08:20:51.236Z,22.44
2019-03-12T08:22:58.281Z,22.29
2019-03-12T08:25:03.363Z,22.24
2019-03-12T08:27:16.724Z,22.37
2019-03-12T08:29:36.082Z,22.45
2019-03-12T08:31:43.389Z,22.58
2019-03-12T08:33:55.782Z,22.58
2019-03-12T08:36:03.087Z,22.62
2019-03-12T08:38:15.432Z,22.62
2019-03-12T08:40:24.542Z,22.73
2019-03-12T08:42:54.035Z,22.65
2019-03-12T08:45:00.462Z,22.61
2019-03-12T08:47:18.020Z,22.58
2019-03-12T08:49:35.001Z,22.47
2019-03-12T08:51:36.969Z,22.48
2019-03-12T08:53:39.455Z,22.50
2019-03-12T08:55:41.088Z,22.55
2019-03-12T08:57:54.564Z,22.55
2019-03-12T09:00:11.042Z,22.49
2019-03-12T09:02:29.081Z,22.42
2019-03-12T09:04:36.301Z,22.26
2019-03-12T09:06:48.733Z,22.11
2019-03-12T09:08:51.296Z,21.96
2019-03-12T09:10:55.511Z,21.92
2019-03-12T09:12:58.869Z,21.86
2019-03-12T09:15:06.139Z,21.79
2019-03-12T09:17:27.466Z,21.75
2019-03-12T09:19:29.078Z,21.71
2019-03-12T09:21:37.392Z,21.66
2019-03-12T09:23:55.868Z,21.63
2019-03-12T09:25:57.480Z,21.63
2019-03-12T09:28:07.616Z,21.65
2019-03-12T09:30:30.048Z,21.69
2019-03-12T09:32:41.568Z,21.78
2019-03-12T09:34:45.792Z,21.88
2019-03-12T09:37:02.956Z,21.98
2019-03-12T09:39:05.798Z,22.05
2019-03-12T09:41:08.363Z,22.10
2019-03-12T09:43:12.405Z,22.18
2019-03-12T09:45:16.478Z,22.23
2019-03-12T09:47:18.080Z,22.24
2019-03-12T09:49:22.611Z,22.28
2019-03-12T09:51:41.965Z,22.32
2019-03-12T09:53:44.292Z,22.34
2019-03-12T09:56:02.612Z,22.35
2019-03-12T09:58:04.228Z,22.34
2019-03-12T10:00:16.118Z,22.34
2019-03-12T10:02:18.015Z,22.30
2019-03-12T10:04:22.208Z,22.32
2019-03-12T10:06:29.396Z,22.29
2019-03-12T10:08:31.008Z,22.27
2019-03-12T10:10:32.677Z,22.23
2019-03-12T10:12:50.054Z,22.20
2019-03-12T10:14:57.265Z,22.16
2019-03-12T10:17:13.883Z,22.12
2019-03-12T10:19:19.231Z,21.85
2019-03-12T10:21:22.451Z,22.05
2019-03-12T10:23:40.810Z,22.00
2019-03-12T10:25:45.881Z,21.96
2019-03-12T10:27:47.477Z,21.91
2019-03-12T10:30:03.967Z,21.89
2019-03-12T10:32:06.073Z,21.84
2019-03-12T10:34:28.811Z,21.81
2019-03-12T10:36:20.312Z,21.77
2019-03-12T10:38:33.593Z,21.75
2019-03-12T10:40:41.708Z,21.73
2019-03-12T10:43:02.166Z,21.74
2019-03-12T10:45:09.585Z,21.71
2019-03-12T10:47:12.968Z,21.70
2019-03-12T10:49:14.629Z,21.71
2019-03-12T10:51:16.222Z,21.71
2019-03-12T10:53:17.854Z,21.71
2019-03-12T10:55:19.450Z,21.74
2019-03-12T10:57:21.700Z,21.76
2019-03-12T10:59:22.728Z,21.79
2019-03-12T11:01:24.340Z,21.85
2019-03-12T11:03:25.984Z,21.92
2019-03-12T11:05:27.641Z,21.96
2019-03-12T11:07:29.225Z,21.70
2019-03-12T11:09:30.830Z,20.00
2019-03-12T11:11:32.413Z,19.30
2019-03-12T11:13:34.100Z,19.23
2019-03-12T11:15:35.736Z,20.32
2019-03-12T11:17:48.735Z,21.45
2019-03-12T11:19:39.009Z,22.14
2019-03-12T11:21:40.612Z,22.38
2019-03-12T11:23:42.272Z,22.73
2019-03-12T11:25:44.293Z,22.94
2019-03-12T11:27:46.110Z,22.86
2019-03-12T11:29:47.856Z,23.19
2019-03-12T11:31:49.676Z,23.27
2019-03-12T11:33:51.288Z,23.34
2019-03-12T11:35:53.390Z,23.37
2019-03-12T11:37:55.000Z,23.45
2019-03-12T11:39:56.635Z,23.24
2019-03-12T11:41:58.252Z,22.95
2019-03-12T11:43:59.858Z,22.81
2019-03-12T11:46:01.510Z,22.73
2019-03-12T11:48:04.970Z,22.52
2019-03-12T11:50:06.634Z,22.72
2019-03-12T11:52:08.897Z,22.69
2019-03-12T11:54:10.747Z,22.67
2019-03-12T11:56:12.404Z,22.64
2019-03-12T11:58:14.028Z,22.62
2019-03-12T12:00:19.251Z,22.62
2019-03-12T12:02:17.315Z,22.60
2019-03-12T12:04:19.536Z,22.59
2019-03-12T12:06:21.170Z,22.58
2019-03-12T12:08:22.807Z,22.52
2019-03-12T12:10:24.453Z,22.46
2019-03-12T12:12:26.054Z,22.40
2019-03-12T12:14:27.660Z,22.38
2019-03-12T12:16:29.262Z,22.35
2019-03-12T12:18:30.871Z,22.34
2019-03-12T12:20:32.473Z,22.32
2019-03-12T12:22:34.061Z,22.40
2019-03-12T12:24:35.686Z,22.47
2019-03-12T12:26:37.376Z,22.48
2019-03-12T12:28:39.117Z,22.48
2019-03-12T12:30:40.810Z,22.53
2019-03-12T12:32:42.439Z,22.52
2019-03-12T12:34:44.723Z,22.54
2019-03-12T12:36:46.336Z,22.53
2019-03-12T12:38:47.934Z,22.70
2019-03-12T12:40:49.537Z,23.05
2019-03-12T12:42:51.157Z,23.27
2019-03-12T12:44:52.801Z,23.10
2019-03-12T12:46:54.402Z,22.95
2019-03-12T12:48:55.993Z,22.96
2019-03-12T12:51:02.936Z,22.80
2019-03-12T12:52:59.257Z,23.21
2019-03-12T12:55:00.865Z,23.33
2019-03-12T12:57:02.467Z,23.34
2019-03-12T12:59:04.067Z,23.42
2019-03-12T13:01:05.714Z,23.29
2019-03-12T13:03:07.408Z,23.41
2019-03-12T13:05:09.448Z,23.47
2019-03-12T13:07:11.070Z,23.29
2019-03-12T13:09:12.670Z,23.41
2019-03-12T13:11:14.257Z,23.45
2019-03-12T13:13:15.860Z,23.41
2019-03-12T13:15:17.633Z,23.22
2019-03-12T13:17:19.240Z,23.26
2019-03-12T13:19:20.885Z,23.17
2019-03-12T13:21:22.484Z,23.22
2019-03-12T13:23:24.083Z,23.31
2019-03-12T13:25:25.992Z,23.37
2019-03-12T13:27:27.575Z,23.38
2019-03-12T13:29:29.404Z,23.40
2019-03-12T13:31:31.027Z,23.43
2019-03-12T13:33:32.622Z,23.39
2019-03-12T13:35:34.788Z,23.26
2019-03-12T13:37:36.379Z,23.36
2019-03-12T13:39:38.316Z,23.07
2019-03-12T13:41:39.929Z,22.92
2019-03-12T13:43:41.550Z,22.95
2019-03-12T13:45:43.353Z,22.95
2019-03-12T13:47:45.440Z,23.07
2019-03-12T13:49:46.624Z,23.14
2019-03-12T13:51:48.698Z,23.08
2019-03-12T13:53:50.063Z,22.92
2019-03-12T13:55:51.661Z,22.98
2019-03-12T13:57:53.302Z,22.82
2019-03-12T13:59:54.956Z,22.84
2019-03-12T14:01:56.578Z,22.80
2019-03-12T14:04:10.068Z,22.84
2019-03-12T14:06:00.178Z,22.81
2019-03-12T14:08:01.773Z,22.81
2019-03-12T14:10:04.591Z,22.80
2019-03-12T14:12:06.204Z,22.73
2019-03-12T14:14:07.806Z,22.66
2019-03-12T14:16:09.438Z,22.70
2019-03-12T14:18:11.097Z,22.78
2019-03-12T14:20:12.809Z,22.79
2019-03-12T14:22:14.447Z,22.77
2019-03-12T14:24:16.048Z,22.78
2019-03-12T14:26:17.644Z,22.76
2019-03-12T14:28:19.268Z,22.74
2019-03-12T14:30:20.867Z,22.76
2019-03-12T14:32:22.476Z,22.84
2019-03-12T14:34:26.935Z,22.90
2019-03-12T14:36:25.739Z,22.84
2019-03-12T14:38:27.367Z,22.79
2019-03-12T14:40:28.975Z,23.08
2019-03-12T14:42:30.628Z,23.42
2019-03-12T14:44:32.234Z,23.62
2019-03-12T14:46:33.834Z,23.74
2019-03-12T14:48:35.470Z,23.77
2019-03-12T14:50:37.070Z,23.91
2019-03-12T14:52:38.671Z,23.75
2019-03-12T14:54:40.278Z,23.78
2019-03-12T14:56:41.883Z,23.69
2019-03-12T14:58:43.525Z,23.68
2019-03-12T15:00:45.139Z,23.74
2019-03-12T15:02:46.750Z,23.82
2019-03-12T15:04:48.366Z,24.04
2019-03-12T15:06:50.117Z,24.12
2019-03-12T15:08:51.740Z,24.19
2019-03-12T15:10:53.341Z,24.25
2019-03-12T15:12:55.016Z,24.17
2019-03-12T15:14:56.651Z,24.13
2019-03-12T15:16:58.265Z,24.04
2019-03-12T15:18:59.900Z,24.07
2019-03-12T15:21:01.543Z,23.96
2019-03-12T15:23:03.174Z,24.11
2019-03-12T15:25:04.791Z,24.04
2019-03-12T15:27:06.416Z,24.12
2019-03-12T15:29:08.035Z,24.04
2019-03-12T15:31:09.674Z,24.06
2019-03-12T15:33:11.576Z,23.81
2019-03-12T15:35:13.174Z,23.80
2019-03-12T15:37:14.769Z,23.92
2019-03-12T15:39:16.395Z,23.84
2019-03-12T15:41:18.056Z,23.60
2019-03-12T15:43:19.680Z,23.44
2019-03-12T15:45:21.268Z,23.41
2019-03-12T15:47:22.903Z,23.49
2019-03-12T15:49:24.493Z,23.71
2019-03-12T15:51:26.120Z,23.54
2019-03-12T15:53:27.863Z,23.69
2019-03-12T15:55:29.461Z,23.74
2019-03-12T15:57:31.096Z,23.70
2019-03-12T15:59:32.690Z,23.64
2019-03-12T16:01:34.287Z,22.91
2019-03-12T16:03:35.900Z,22.56
2019-03-12T16:05:37.536Z,22.36
2019-03-12T16:07:39.126Z,22.14
2019-03-12T16:09:40.721Z,22.15
2019-03-12T16:11:43.016Z,22.19
2019-03-12T16:13:44.670Z,22.21
2019-03-12T16:15:46.298Z,22.56
2019-03-12T16:17:47.895Z,22.63
2019-03-12T16:19:49.563Z,23.00
2019-03-12T16:21:51.166Z,23.16
2019-03-12T16:23:52.950Z,23.37
2019-03-12T16:25:54.394Z,23.26
2019-03-12T16:27:56.028Z,23.41
2019-03-12T16:29:57.641Z,23.54
2019-03-12T16:31:59.260Z,23.65
2019-03-12T16:34:00.858Z,23.58
2019-03-12T16:36:02.467Z,23.59
2019-03-12T16:38:06.885Z,23.56
2019-03-12T16:40:05.754Z,23.64
2019-03-12T16:42:07.349Z,23.44
2019-03-12T16:44:09.216Z,23.51
2019-03-12T16:46:10.810Z,23.63
2019-03-12T16:48:12.554Z,23.50
2019-03-12T16:50:14.109Z,23.40
2019-03-12T16:52:16.008Z,23.34
2019-03-12T16:54:17.703Z,23.22
2019-03-12T16:56:19.332Z,23.26
2019-03-12T16:58:21.007Z,23.23
2019-03-12T17:00:22.972Z,23.19
2019-03-12T17:02:24.626Z,23.28
2019-03-12T17:04:26.246Z,23.20
2019-03-12T17:06:27.886Z,23.56
2019-03-12T17:08:29.536Z,23.50
2019-03-12T17:10:31.176Z,23.13
2019-03-12T17:12:32.978Z,22.93
2019-03-12T17:14:39.093Z,22.83
2019-03-12T17:16:36.270Z,22.72
2019-03-12T17:18:37.928Z,22.68
2019-03-12T17:20:39.527Z,22.63
2019-03-12T17:22:41.283Z,22.62
2019-03-12T17:24:43.094Z,22.59
2019-03-12T17:26:44.697Z,22.56
2019-03-12T17:28:46.294Z,22.51
2019-03-12T17:30:47.918Z,22.46
2019-03-12T17:32:49.524Z,22.49
2019-03-12T17:34:51.118Z,22.47
2019-03-12T17:36:52.718Z,22.46
2019-03-12T17:38:54.340Z,22.46
2019-03-12T17:40:55.969Z,22.47
2019-03-12T17:42:57.596Z,22.48
2019-03-12T17:44:59.198Z,22.47
2019-03-12T17:47:00.805Z,22.50
2019-03-12T17:49:02.452Z,22.53
2019-03-12T17:51:04.276Z,22.59
2019-03-12T17:53:05.881Z,22.67
2019-03-12T17:55:07.513Z,22.70
2019-03-12T17:57:09.747Z,22.71
2019-03-12T17:59:11.352Z,22.67
2019-03-12T18:01:12.994Z,22.85
2019-03-12T18:03:14.606Z,22.53
2019-03-12T18:05:16.205Z,22.68
2019-03-12T18:07:17.807Z,22.84
2019-03-12T18:09:19.407Z,22.88
2019-03-12T18:11:21.654Z,22.99
2019-03-12T18:13:23.242Z,23.02
2019-03-12T18:15:24.950Z,23.16
2019-03-12T18:17:26.555Z,23.37
2019-03-12T18:19:28.166Z,23.36
2019-03-12T18:21:29.760Z,23.44
2019-03-12T18:23:31.372Z,23.36
2019-03-12T18:25:33.071Z,23.45
2019-03-12T18:27:35.388Z,23.66
2019-03-12T18:29:37.237Z,23.33
2019-03-12T18:31:38.905Z,22.91
2019-03-12T18:33:40.548Z,22.71
2019-03-12T18:35:42.145Z,22.37
2019-03-12T18:37:43.741Z,22.47
2019-03-12T18:39:45.418Z,22.36
2019-03-12T18:41:47.000Z,22.42
2019-03-12T18:43:48.594Z,22.81
2019-03-12T18:45:50.388Z,22.90
2019-03-12T18:47:51.997Z,23.00
2019-03-12T18:49:54.469Z,23.23
2019-03-12T18:51:56.100Z,23.49
2019-03-12T18:53:57.709Z,23.45
2019-03-12T18:55:59.319Z,23.28
2019-03-12T18:58:01.580Z,23.28
2019-03-12T19:00:03.173Z,23.36
2019-03-12T19:02:04.808Z,23.52
2019-03-12T19:04:06.401Z,23.42
2019-03-12T19:06:10.062Z,23.47
2019-03-12T19:08:10.184Z,23.48
2019-03-12T19:10:13.144Z,23.54
2019-03-12T19:12:13.534Z,23.55
2019-03-12T19:14:15.129Z,23.55
2019-03-12T19:16:17.148Z,23.49
2019-03-12T19:18:18.728Z,22.96
2019-03-12T19:20:20.308Z,23.02
2019-03-12T19:22:21.904Z,22.97
2019-03-12T19:24:23.508Z,22.91
2019-03-12T19:26:27.558Z,23.01
2019-03-12T19:28:29.289Z,23.14
2019-03-12T19:30:30.904Z,23.09
2019-03-12T19:32:33.152Z,22.82
2019-03-12T19:34:34.814Z,22.90
2019-03-12T19:36:36.414Z,23.02
2019-03-12T19:38:38.027Z,23.19
2019-03-12T19:40:39.650Z,23.22
2019-03-12T19:42:42.038Z,23.23
2019-03-12T19:44:43.689Z,23.28
2019-03-12T19:46:45.329Z,23.14
2019-03-12T19:48:46.943Z,23.23
2019-03-12T19:50:48.567Z,23.30
2019-03-12T19:52:50.293Z,23.15
2019-03-12T19:54:51.885Z,23.20
2019-03-12T19:56:53.532Z,22.90
2019-03-12T19:58:55.925Z,23.05
2019-03-12T20:00:57.542Z,23.05
2019-03-12T20:03:10.283Z,23.02
2019-03-12T20:05:02.743Z,23.08
2019-03-12T20:07:04.342Z,23.61
2019-03-12T20:09:06.095Z,23.65
2019-03-12T20:11:07.648Z,23.38
2019-03-12T20:13:11.984Z,23.19
2019-03-12T20:15:13.601Z,23.05
2019-03-12T20:17:15.213Z,23.09
2019-03-12T20:19:17.323Z,23.15
2019-03-12T20:21:18.936Z,23.40
2019-03-12T20:23:21.763Z,23.46
2019-03-12T20:25:24.313Z,23.27
2019-03-12T20:27:26.456Z,23.27
2019-03-12T20:29:28.286Z,23.23
2019-03-12T20:31:29.878Z,23.20
2019-03-12T20:33:31.576Z,23.23
2019-03-12T20:35:33.783Z,23.26
2019-03-12T20:37:36.367Z,23.15
2019-03-12T20:39:38.004Z,23.00
2019-03-12T20:41:39.603Z,22.92
2019-03-12T20:43:41.216Z,22.89
2019-03-12T20:45:42.882Z,22.86
2019-03-12T20:47:44.503Z,22.83
2019-03-12T20:49:46.153Z,22.79
2019-03-12T20:51:49.091Z,22.79
2019-03-12T20:53:50.676Z,22.62
2019-03-12T20:55:52.284Z,22.75
2019-03-12T20:57:53.924Z,22.71
2019-03-12T20:59:55.539Z,22.69
2019-03-12T21:01:57.135Z,22.69
2019-03-12T21:03:59.043Z,22.67
2019-03-12T21:06:00.651Z,22.67
2019-03-12T21:08:02.267Z,22.66
2019-03-12T21:10:03.929Z,22.64
2019-03-12T21:12:06.123Z,22.63
2019-03-12T21:14:07.727Z,22.59
2019-03-12T21:16:09.368Z,22.58
2019-03-12T21:18:10.952Z,22.57
2019-03-12T21:20:12.553Z,22.57
2019-03-12T21:22:14.144Z,22.55
2019-03-12T21:24:15.748Z,22.53
2019-03-12T21:26:17.457Z,22.27
2019-03-12T21:28:19.072Z,22.46
2019-03-12T21:30:20.670Z,22.47
2019-03-12T21:32:22.271Z,22.44
2019-03-12T21:34:23.865Z,22.43
2019-03-12T21:36:25.487Z,22.44
2019-03-12T21:38:27.087Z,22.44
2019-03-12T21:40:28.693Z,22.46
2019-03-12T21:42:30.299Z,22.49
2019-03-12T21:44:32.009Z,22.50
2019-03-12T21:46:33.596Z,22.49
2019-03-12T21:48:35.211Z,22.53
2019-03-12T21:50:36.838Z,22.61
2019-03-12T21:52:38.437Z,23.33
2019-03-12T21:54:40.092Z,23.22
2019-03-12T21:56:41.695Z,23.32
2019-03-12T21:58:43.298Z,23.48
2019-03-12T22:00:44.965Z,23.47
2019-03-12T22:02:46.563Z,23.32
2019-03-12T22:04:48.161Z,22.94
2019-03-12T22:06:49.768Z,22.68
2019-03-12T22:08:51.353Z,22.41
2019-03-12T22:10:52.996Z,20.06
2019-03-12T22:12:54.604Z,20.17
2019-03-12T22:14:56.233Z,21.09
2019-03-12T22:16:57.839Z,21.60
2019-03-12T22:18:59.433Z,21.85
2019-03-12T22:21:01.077Z,21.96
2019-03-12T22:23:07.600Z,22.02
2019-03-12T22:25:09.212Z,22.04
2019-03-12T22:27:10.860Z,22.07
2019-03-12T22:29:12.531Z,22.11
2019-03-12T22:31:14.137Z,22.13
2019-03-12T22:33:15.743Z,22.17
2019-03-12T22:35:17.399Z,22.22
2019-03-12T22:37:19.030Z,22.25
2019-03-12T22:39:20.640Z,22.26
2019-03-12T22:41:22.300Z,22.28
2019-03-12T22:43:23.897Z,22.33
2019-03-12T22:45:25.490Z,22.32
2019-03-12T22:47:27.092Z,22.36
2019-03-12T22:49:28.690Z,22.36
2019-03-12T22:51:30.281Z,22.36
2019-03-12T22:53:31.927Z,22.39
2019-03-12T22:55:33.552Z,22.38
2019-03-12T22:57:35.142Z,22.38
2019-03-12T22:59:36.738Z,22.37
2019-03-12T23:01:38.365Z,22.40
2019-03-12T23:03:39.994Z,22.40
2019-03-12T23:05:41.758Z,21.82
2019-03-12T23:07:43.355Z,22.29
2019-03-12T23:09:44.947Z,22.38
2019-03-12T23:11:46.556Z,22.39
2019-03-12T23:13:48.149Z,22.39
2019-03-12T23:15:49.816Z,22.37
2019-03-12T23:17:51.414Z,22.37
2019-03-12T23:19:53.027Z,22.35
2019-03-12T23:21:54.678Z,22.32
2019-03-12T23:23:56.278Z,22.32
2019-03-12T23:25:57.884Z,22.31
2019-03-12T23:27:59.478Z,22.32
2019-03-12T23:30:01.073Z,22.31
2019-03-12T23:32:02.729Z,22.30
2019-03-12T23:34:04.341Z,22.27
2019-03-12T23:36:05.933Z,22.25
2019-03-12T23:38:07.530Z,22.24
2019-03-12T23:40:09.140Z,22.23
2019-03-12T23:42:10.770Z,22.23
2019-03-12T23:44:12.412Z,22.23
2019-03-12T23:46:14.019Z,22.21
2019-03-12T23:48:15.651Z,22.18
2019-03-12T23:50:17.263Z,22.19
2019-03-12T23:52:18.857Z,22.18
2019-03-12T23:54:20.477Z,22.16
2019-03-12T23:56:22.104Z,22.16
2019-03-12T23:58:23.733Z,22.17
